Time;durP1;ratioP1;P1;durP2;ratioP2;P2;SDS_P1;SDS_P2;PMS_P1;PMS_P2;Temp;Humidity;BMP_temperature;BMP_pressure;BME280_temperature;BME280_humidity;BME280_pressure;Samples;Min_cycle;Max_cycle;Signal;HPM_P1;HPM_P2
2021/05/04 00:01:21;;;;;;;15.25;6.75;;;;;;;12.24;43.00;100113.84;5032219;28;20085;-75
2021/05/04 00:03:48;;;;;;;12.88;5.90;;;;;;;12.24;42.97;100091.00;5046663;28;20044;-75
2021/05/04 00:06:14;;;;;;;9.75;5.55;;;;;;;12.26;42.79;100077.69;5056669;28;20153;-75
2021/05/04 00:08:39;;;;;;;14.27;6.28;;;;;;;12.29;43.59;100056.31;5032920;28;20514;-74
2021/05/04 00:11:06;;;;;;;11.10;5.13;;;;;;;12.25;43.02;100050.59;5062439;28;20095;-75
2021/05/04 00:13:32;;;;;;;14.73;6.00;;;;;;;12.35;42.65;100070.53;5041557;28;20055;-74
2021/05/04 00:15:57;;;;;;;17.40;5.45;;;;;;;12.30;43.90;100038.72;5046985;28;20058;-75
2021/05/04 00:18:24;;;;;;;12.52;5.30;;;;;;;12.38;43.71;100054.41;5036843;28;20595;-74
2021/05/04 00:20:50;;;;;;;18.15;5.15;;;;;;;12.35;42.89;100031.09;5027703;28;20138;-75
2021/05/04 00:23:16;;;;;;;14.25;5.68;;;;;;;12.37;44.36;100058.06;5058712;28;20083;-74
2021/05/04 00:25:42;;;;;;;11.75;4.95;;;;;;;12.26;45.09;100051.41;5049780;28;20080;-74
2021/05/04 00:28:08;;;;;;;26.88;4.60;;;;;;;12.20;46.22;100042.38;5057293;28;20052;-75
2021/05/04 00:30:53;;;;;;;11.65;4.63;;;;;;;12.09;46.29;100036.72;5058656;28;20052;-74
2021/05/04 00:33:19;;;;;;;12.73;4.30;;;;;;;12.03;47.43;100038.25;5049853;28;20224;-74
2021/05/04 00:35:45;;;;;;;7.53;3.72;;;;;;;11.82;48.07;100049.38;5067498;28;20407;-74
2021/05/04 00:38:11;;;;;;;12.30;4.55;;;;;;;11.74;49.57;100041.50;5036242;28;20065;-74
2021/05/04 00:40:37;;;;;;;12.05;4.78;;;;;;;11.57;51.04;100025.84;5054844;28;20059;-74
2021/05/04 00:43:03;;;;;;;9.88;4.88;;;;;;;11.52;51.07;100037.84;5051148;28;20092;-73
2021/05/04 00:45:29;;;;;;;7.93;4.45;;;;;;;11.49;52.25;100018.00;5063289;28;20418;-74
2021/05/04 00:47:55;;;;;;;14.65;5.43;;;;;;;11.35;53.70;100037.09;5063618;28;20106;-74
2021/05/04 00:50:21;;;;;;;11.77;5.53;;;;;;;11.19;55.31;100016.97;5035125;28;20053;-75
2021/05/04 00:52:47;;;;;;;15.07;4.93;;;;;;;10.98;56.61;100025.44;5043791;28;20052;-76
2021/05/04 00:55:13;;;;;;;9.32;4.18;;;;;;;10.82;56.88;100014.00;5050515;28;20504;-76
2021/05/04 00:57:41;;;;;;;12.07;4.90;;;;;;;10.66;59.88;100029.75;5059961;28;20527;-76
2021/05/04 01:00:08;;;;;;;15.82;4.22;;;;;;;10.54;59.13;100025.84;5062000;28;20060;-76
2021/05/04 01:02:35;;;;;;;11.10;4.30;;;;;;;10.30;61.16;100001.28;5040614;28;20407;-77
2021/05/04 01:05:01;;;;;;;14.50;4.40;;;;;;;10.24;60.47;100002.72;5066474;28;20109;-76
2021/05/04 01:07:28;;;;;;;21.80;4.40;;;;;;;10.07;66.28;100006.31;5033827;28;20052;-75
2021/05/04 01:09:54;;;;;;;11.15;4.82;;;;;;;10.01;63.34;99988.63;5040697;28;20172;-76
2021/05/04 01:12:21;;;;;;;27.48;5.22;;;;;;;9.96;63.71;99998.75;5054344;28;20480;-76
2021/05/04 01:14:48;;;;;;;22.50;4.88;;;;;;;9.87;63.42;99996.13;5062275;28;20102;-76
2021/05/04 01:17:14;;;;;;;13.88;5.00;;;;;;;9.81;65.64;99978.44;5062653;28;20500;-76
2021/05/04 01:19:42;;;;;;;18.83;4.32;;;;;;;9.66;65.71;99980.91;5054712;28;20052;-76
2021/05/04 01:22:08;;;;;;;12.55;5.05;;;;;;;9.67;66.15;99971.25;5032689;28;20171;-76
2021/05/04 01:24:34;;;;;;;11.05;4.95;;;;;;;9.44;66.40;99963.16;5050145;28;20053;-76
2021/05/04 01:27:00;;;;;;;20.05;5.10;;;;;;;9.42;68.21;99946.81;5041813;28;20075;-76
2021/05/04 01:29:26;;;;;;;18.40;5.25;;;;;;;9.45;68.06;99956.97;5052539;28;20098;-76
2021/05/04 01:31:53;;;;;;;17.50;4.68;;;;;;;9.30;68.14;99927.97;5055422;28;20071;-75
2021/05/04 01:34:19;;;;;;;12.15;5.20;;;;;;;9.26;68.40;99924.03;5065311;28;20665;-76
2021/05/04 01:36:46;;;;;;;9.73;5.38;;;;;;;9.24;68.74;99932.03;5045044;28;20097;-76
2021/05/04 01:39:12;;;;;;;15.43;5.55;;;;;;;9.16;69.19;99908.47;5057850;28;20075;-76
2021/05/04 01:41:39;;;;;;;14.75;5.45;;;;;;;9.23;69.11;99925.19;5051846;28;20076;-76
2021/05/04 01:44:07;;;;;;;11.70;5.20;;;;;;;9.25;69.81;99919.75;5060892;28;20098;-76
2021/05/04 01:46:33;;;;;;;11.85;4.18;;;;;;;9.17;69.30;99907.47;5049722;28;20080;-76
2021/05/04 01:49:01;;;;;;;10.57;5.68;;;;;;;9.18;71.07;99903.09;5058439;28;20114;-76
2021/05/04 01:51:28;;;;;;;13.45;5.70;;;;;;;9.12;71.15;99899.31;5047459;28;20106;-76
2021/05/04 01:53:56;;;;;;;10.30;5.07;;;;;;;9.08;70.48;99897.97;5051887;28;20155;-76
2021/05/04 01:56:22;;;;;;;19.85;5.70;;;;;;;9.08;71.15;99901.41;5038833;28;20056;-76
2021/05/04 01:58:48;;;;;;;16.80;5.53;;;;;;;8.98;71.92;99890.28;5050282;28;20800;-76
2021/05/04 02:01:16;;;;;;;14.50;5.47;;;;;;;8.97;72.32;99903.50;5042983;28;20056;-76
2021/05/04 02:03:43;;;;;;;16.25;5.57;;;;;;;8.91;72.85;99884.03;5048466;28;20465;-76
2021/05/04 02:06:09;;;;;;;16.50;6.28;;;;;;;8.87;73.98;99877.47;5053457;28;20143;-76
2021/05/04 02:08:35;;;;;;;10.13;6.43;;;;;;;8.81;74.95;99885.97;5056433;28;20061;-76
2021/05/04 02:11:02;;;;;;;14.75;6.05;;;;;;;8.76;74.83;99873.38;5054638;28;20139;-76
2021/05/04 02:13:28;;;;;;;12.23;5.35;;;;;;;8.67;74.50;99882.16;5057384;28;20783;-76
2021/05/04 02:15:54;;;;;;;11.02;5.93;;;;;;;8.66;75.37;99872.66;5057908;28;20045;-76
2021/05/04 02:18:20;;;;;;;18.65;6.05;;;;;;;8.60;75.28;99849.75;5056540;28;20053;-76
2021/05/04 02:20:46;;;;;;;16.73;6.22;;;;;;;8.58;75.60;99833.41;5049364;28;20114;-76
2021/05/04 02:23:12;;;;;;;10.57;5.90;;;;;;;8.52;75.10;99850.53;5057573;28;20087;-76
2021/05/04 02:25:38;;;;;;;10.90;4.88;;;;;;;8.51;75.48;99830.63;5058903;28;20114;-75
2021/05/04 02:28:04;;;;;;;8.60;5.35;;;;;;;8.55;75.77;99828.50;5030907;28;654746;-74
2021/05/04 02:30:33;;;;;;;11.32;6.03;;;;;;;8.48;75.76;99841.38;5055616;28;20538;-74
2021/05/04 02:33:00;;;;;;;10.48;5.38;;;;;;;8.48;76.48;99815.25;5044287;28;20468;-74
2021/05/04 02:35:26;;;;;;;10.27;5.78;;;;;;;8.52;76.08;99806.09;5043590;28;20060;-74
2021/05/04 02:37:52;;;;;;;10.05;5.72;;;;;;;8.42;76.07;99803.63;5039805;28;20067;-74
2021/05/04 02:40:19;;;;;;;15.60;5.97;;;;;;;8.44;75.92;99801.66;5050728;28;20060;-74
2021/05/04 02:42:45;;;;;;;13.35;5.60;;;;;;;8.43;76.14;99801.84;5058383;28;20658;-74
2021/05/04 02:45:12;;;;;;;12.40;5.85;;;;;;;8.42;76.30;99782.72;5030258;28;20077;-74
2021/05/04 02:47:38;;;;;;;8.65;5.35;;;;;;;8.43;76.19;99779.13;5038251;28;20159;-74
2021/05/04 02:50:05;;;;;;;13.57;5.70;;;;;;;8.45;76.44;99774.56;5050702;28;20052;-75
2021/05/04 02:52:31;;;;;;;7.47;4.68;;;;;;;8.43;76.50;99768.69;5057903;28;20132;-74
2021/05/04 02:54:58;;;;;;;10.75;5.43;;;;;;;8.46;77.21;99762.31;5061481;28;20636;-75
2021/05/04 02:57:24;;;;;;;10.82;5.85;;;;;;;8.36;77.54;99751.16;5052477;28;20145;-75
2021/05/04 02:59:50;;;;;;;11.80;5.50;;;;;;;-145.50;100.00;65435.88;5038409;28;20052;-75
2021/05/04 03:02:16;;;;;;;10.13;5.85;;;;;;;8.27;78.15;99748.50;5052912;28;20592;-75
2021/05/04 03:04:42;;;;;;;10.07;5.55;;;;;;;8.22;78.95;99737.69;5060817;28;20055;-75
2021/05/04 03:07:09;;;;;;;14.27;5.05;;;;;;;8.14;80.15;99729.84;5050223;28;20060;-75
2021/05/04 03:09:35;;;;;;;12.57;5.60;;;;;;;8.14;79.58;99737.66;5059319;28;20087;-75
2021/05/04 03:12:01;;;;;;;11.93;5.75;;;;;;;8.14;79.35;99702.91;5056729;28;20547;-75
2021/05/04 03:14:28;;;;;;;6.22;4.03;;;;;;;8.18;78.88;99722.50;5047231;28;20083;-75
2021/05/04 03:16:53;;;;;;;11.27;5.00;;;;;;;8.17;79.40;99711.22;5058285;28;20477;-75
2021/05/04 03:19:20;;;;;;;7.60;4.30;;;;;;;8.17;78.95;99710.41;5033420;28;20073;-75
2021/05/04 03:21:46;;;;;;;8.82;4.72;;;;;;;8.19;78.17;99705.84;5058438;28;20829;-74
2021/05/04 03:24:12;;;;;;;9.25;4.68;;;;;;;8.23;78.06;99700.16;5057106;28;20064;-75
2021/05/04 03:26:38;;;;;;;9.20;5.10;;;;;;;8.28;77.88;99686.63;5029872;28;20052;-74
2021/05/04 03:29:04;;;;;;;8.55;4.00;;;;;;;8.30;77.19;99685.47;5055234;28;20318;-75
2021/05/04 03:31:30;;;;;;;9.73;4.10;;;;;;;8.35;77.08;99710.28;5050250;28;20053;-75
2021/05/04 03:33:56;;;;;;;10.35;4.82;;;;;;;8.30;76.92;99654.13;5066721;28;20469;-75
2021/05/04 03:36:23;;;;;;;9.52;3.97;;;;;;;8.38;76.69;99649.91;5032656;28;20052;-75
2021/05/04 03:38:49;;;;;;;9.82;4.57;;;;;;;8.33;76.15;99655.63;5055750;28;20061;-75
2021/05/04 03:41:15;;;;;;;6.10;4.32;;;;;;;8.40;76.69;99638.28;5042238;28;20319;-74
2021/05/04 03:43:41;;;;;;;6.70;3.70;;;;;;;8.46;76.28;99631.63;5051162;28;20791;-74
2021/05/04 03:46:07;;;;;;;5.43;3.70;;;;;;;8.43;76.83;99627.56;5059143;28;20744;-74
2021/05/04 03:48:33;;;;;;;5.55;3.92;;;;;;;8.35;77.74;99626.69;5052910;28;20048;-74
2021/05/04 03:50:59;;;;;;;7.13;3.58;;;;;;;8.32;78.70;99623.41;5055866;28;20661;-74
2021/05/04 03:53:25;;;;;;;9.98;4.30;;;;;;;8.30;79.20;99620.16;5047890;28;20230;-74
2021/05/04 03:55:51;;;;;;;7.93;4.00;;;;;;;8.25;80.15;99619.00;5054606;28;20052;-74
2021/05/04 03:58:18;;;;;;;6.18;4.15;;;;;;;8.21;80.84;99612.47;5061757;28;20075;-74
2021/05/04 04:00:44;;;;;;;7.30;4.20;;;;;;;8.20;81.59;99603.81;5050234;28;20083;-75
2021/05/04 04:03:10;;;;;;;6.93;4.18;;;;;;;8.19;82.12;99596.94;5057845;28;20163;-74
2021/05/04 04:05:36;;;;;;;6.38;4.32;;;;;;;8.19;81.59;99581.25;5050094;28;20052;-75
2021/05/04 04:08:02;;;;;;;9.85;4.57;;;;;;;8.16;81.02;99604.31;5054800;28;20114;-75
2021/05/04 04:10:28;;;;;;;8.85;4.22;;;;;;;8.12;81.04;99565.44;5052173;28;20045;-76
2021/05/04 04:12:55;;;;;;;7.90;4.68;;;;;;;8.17;81.51;99579.81;5051118;28;20048;-75
2021/05/04 04:15:21;;;;;;;6.43;4.07;;;;;;;8.10;80.54;99579.63;5049604;28;20087;-74
2021/05/04 04:17:47;;;;;;;8.57;4.30;;;;;;;8.11;80.62;99566.44;5054168;28;20098;-75
2021/05/04 04:20:13;;;;;;;10.10;3.67;;;;;;;8.11;80.22;99566.44;5060506;28;20101;-75
2021/05/04 04:22:39;;;;;;;7.57;4.32;;;;;;;8.14;80.06;99554.84;5043212;28;20524;-75
2021/05/04 04:25:07;;;;;;;6.78;3.58;;;;;;;8.13;80.07;99555.78;5041716;28;20052;-74
2021/05/04 04:27:33;;;;;;;7.27;4.17;;;;;;;8.09;81.51;99547.47;5057247;28;20137;-75
2021/05/04 04:29:59;;;;;;;7.82;3.67;;;;;;;8.05;82.95;99563.63;5051644;28;20128;-75
2021/05/04 04:32:25;;;;;;;6.30;4.57;;;;;;;8.03;82.60;99560.34;5057940;28;20078;-76
2021/05/04 04:34:53;;;;;;;6.15;4.35;;;;;;;7.99;83.02;99578.13;5050034;28;20057;-75
2021/05/04 04:37:20;;;;;;;8.93;5.07;;;;;;;7.94;83.23;99554.31;5052754;28;20460;-75
2021/05/04 04:39:46;;;;;;;6.70;4.18;;;;;;;7.92;84.22;99564.91;5050414;28;21427;-75
2021/05/04 04:42:12;;;;;;;9.50;4.68;;;;;;;7.95;84.59;99553.31;5057449;28;20458;-75
2021/05/04 04:44:38;;;;;;;7.57;3.97;;;;;;;7.91;84.55;99544.97;5058202;28;20076;-75
2021/05/04 04:47:07;;;;;;;10.45;4.50;;;;;;;7.93;84.06;99563.91;5052019;28;20296;-74
2021/05/04 04:49:34;;;;;;;5.88;3.83;;;;;;;7.95;83.98;99552.50;5051956;28;20135;-74
2021/05/04 04:52:00;;;;;;;6.80;4.63;;;;;;;7.95;84.30;99553.31;5029894;28;20052;-75
2021/05/04 04:54:26;;;;;;;6.85;3.60;;;;;;;7.96;83.94;99528.84;5057616;28;20052;-74
2021/05/04 04:56:52;;;;;;;6.38;3.63;;;;;;;7.96;83.76;99541.06;5051123;28;20140;-75
2021/05/04 04:59:18;;;;;;;7.15;3.90;;;;;;;7.95;83.30;99527.22;5056660;28;20247;-75
2021/05/04 05:01:44;;;;;;;7.05;4.28;;;;;;;7.96;83.48;99534.09;5058278;28;20067;-75
2021/05/04 05:04:10;;;;;;;10.93;4.30;;;;;;;8.00;83.22;99530.16;5026581;28;20137;-75
2021/05/04 05:06:36;;;;;;;10.63;5.30;;;;;;;8.06;82.80;99529.50;5053855;28;20052;-75
2021/05/04 05:09:07;;;;;;;9.43;3.95;;;;;;;8.10;82.55;99532.63;5049887;28;20507;-75
2021/05/04 05:11:37;;;;;;;8.45;4.13;;;;;;;8.12;82.23;99530.66;5057646;28;20098;-76
2021/05/04 05:14:04;;;;;;;7.63;3.50;;;;;;;8.09;82.35;99531.78;5050076;28;20045;-75
2021/05/04 05:16:31;;;;;;;8.15;4.10;;;;;;;8.11;81.51;99535.09;5053555;28;20052;-73
2021/05/04 05:18:57;;;;;;;10.70;3.80;;;;;;;8.16;82.19;99537.19;5052500;28;20564;-76
2021/05/04 05:21:24;;;;;;;5.88;3.92;;;;;;;8.19;81.79;99523.78;5035692;28;20119;-75
2021/05/04 05:23:53;;;;;;;6.80;3.50;;;;;;;8.21;82.00;99519.25;5062768;28;20198;-75
2021/05/04 05:26:22;;;;;;;6.25;3.80;;;;;;;8.24;81.31;99525.94;5051287;28;20048;-74
2021/05/04 05:28:52;;;;;;;6.43;3.65;;;;;;;8.28;81.10;99525.44;5056811;28;20071;-74
2021/05/04 05:31:20;;;;;;;5.63;3.10;;;;;;;8.32;80.80;99515.50;5056980;28;20518;-75
2021/05/04 05:33:46;;;;;;;6.35;3.67;;;;;;;8.33;80.45;99511.91;5050123;28;20079;-76
2021/05/04 05:36:12;;;;;;;10.63;3.28;;;;;;;8.40;80.45;99494.56;5042799;28;20111;-75
2021/05/04 05:38:38;;;;;;;7.22;3.40;;;;;;;8.43;80.39;99496.09;5037946;28;20049;-75
2021/05/04 05:41:04;;;;;;;4.75;3.33;;;;;;;8.48;80.13;99486.75;5061970;28;20052;-76
2021/05/04 05:43:31;;;;;;;5.22;3.40;;;;;;;8.56;79.19;99491.16;5036695;28;20083;-75
2021/05/04 05:45:58;;;;;;;6.10;3.10;;;;;;;8.65;78.61;99486.75;5058679;28;20048;-75
2021/05/04 05:48:25;;;;;;;8.70;2.50;;;;;;;8.72;78.19;99492.91;5058073;28;20509;-76
2021/05/04 05:50:51;;;;;;;7.40;2.47;;;;;;;8.76;77.09;99475.94;5052388;28;20360;-76
2021/05/04 05:53:18;;;;;;;8.00;2.20;;;;;;;8.86;76.96;99484.41;5062323;28;20121;-75
2021/05/04 05:55:45;;;;;;;6.15;2.17;;;;;;;8.90;76.69;99474.44;5053128;28;20424;-75
2021/05/04 05:58:11;;;;;;;6.35;1.92;;;;;;;8.97;75.62;99492.88;5061702;28;20538;-75
2021/05/04 06:00:37;;;;;;;6.03;2.00;;;;;;;9.01;75.67;99481.09;5029573;28;20075;-75
2021/05/04 06:03:05;;;;;;;4.47;2.00;;;;;;;9.02;75.70;99480.91;5061693;28;20157;-75
2021/05/04 06:05:31;;;;;;;4.15;1.70;;;;;;;9.10;75.80;99478.25;5043591;28;20052;-75
2021/05/04 06:07:58;;;;;;;3.55;2.20;;;;;;;9.13;75.00;99484.13;5038421;28;20056;-75
2021/05/04 06:10:24;;;;;;;5.07;1.83;;;;;;;9.14;75.30;99470.09;5059835;28;20060;-75
2021/05/04 06:12:57;;;;;;;5.80;2.05;;;;;;;9.16;75.41;99460.28;5041976;28;20076;-75
2021/05/04 06:15:23;;;;;;;4.63;2.08;;;;;;;9.24;75.13;99462.84;5057360;28;20127;-74
2021/05/04 06:17:49;;;;;;;6.13;1.77;;;;;;;9.25;75.24;99472.31;5040456;28;20490;-76
2021/05/04 06:20:16;;;;;;;6.78;1.67;;;;;;;9.28;74.36;99492.91;5060270;28;20155;-75
2021/05/04 06:22:42;;;;;;;4.95;1.60;;;;;;;9.33;74.53;99485.38;5062325;28;20126;-74
2021/05/04 06:25:09;;;;;;;4.90;1.80;;;;;;;9.34;75.19;99460.81;5053657;28;20382;-74
2021/05/04 06:27:35;;;;;;;3.53;1.50;;;;;;;9.26;75.71;99466.09;5058037;28;20106;-74
2021/05/04 06:30:01;;;;;;;5.50;1.77;;;;;;;9.26;76.04;99464.28;5051713;28;20529;-72
2021/05/04 06:32:28;;;;;;;4.15;1.85;;;;;;;9.24;75.53;99483.78;5066062;28;20044;-73
2021/05/04 06:34:54;;;;;;;13.77;1.95;;;;;;;9.23;74.56;99496.06;5051891;28;20056;-71
2021/05/04 06:37:21;;;;;;;6.45;1.83;;;;;;;9.27;74.82;99452.03;5059695;28;20055;-73
2021/05/04 06:39:47;;;;;;;5.07;2.00;;;;;;;9.25;75.93;99465.28;5059265;28;20507;-73
2021/05/04 06:42:13;;;;;;;5.03;1.80;;;;;;;9.25;76.17;99507.16;5051598;28;20048;-73
2021/05/04 06:44:39;;;;;;;6.18;2.17;;;;;;;9.21;76.14;99510.28;5059842;28;20127;-73
2021/05/04 06:47:09;;;;;;;7.80;2.58;;;;;;;9.06;76.71;99492.66;5055430;28;20063;-73
2021/05/04 06:49:37;;;;;;;4.88;2.25;;;;;;;9.10;77.76;99478.25;5060986;28;20165;-73
2021/05/04 06:52:04;;;;;;;7.65;2.30;;;;;;;9.13;77.54;99498.03;5052573;28;20053;-73
2021/05/04 06:54:32;;;;;;;4.50;2.53;;;;;;;9.23;77.08;99484.75;5055562;28;20092;-73
2021/05/04 06:56:58;;;;;;;6.40;2.63;;;;;;;9.24;76.96;99481.97;5063275;28;20052;-73
2021/05/04 06:59:24;;;;;;;11.15;2.95;;;;;;;9.29;77.37;99471.81;5054047;28;20124;-72
2021/05/04 07:01:50;;;;;;;5.93;2.50;;;;;;;9.26;77.36;99473.94;5045296;28;20052;-72
2021/05/04 07:04:16;;;;;;;7.95;3.33;;;;;;;9.28;76.72;99475.41;5055036;28;20059;-72
2021/05/04 07:06:43;;;;;;;8.35;2.45;;;;;;;9.37;76.61;99470.97;5054356;28;20056;-72
2021/05/04 07:09:10;;;;;;;8.00;2.70;;;;;;;9.41;76.94;99464.41;5057070;28;20476;-72
2021/05/04 07:11:36;;;;;;;7.88;2.97;;;;;;;9.47;76.46;99463.69;5058964;28;20087;-72
2021/05/04 07:14:04;;;;;;;8.35;2.83;;;;;;;9.51;75.87;99474.66;5056475;28;20075;-72
2021/05/04 07:16:30;;;;;;;7.17;1.90;;;;;;;9.50;74.92;99481.66;5053704;28;20075;-72
2021/05/04 07:18:56;;;;;;;11.43;2.50;;;;;;;9.53;74.60;99470.06;5058159;28;20045;-71
2021/05/04 07:21:23;;;;;;;7.13;2.38;;;;;;;9.45;73.96;99510.19;5049771;28;20056;-72
2021/05/04 07:23:49;;;;;;;9.48;3.28;;;;;;;9.45;74.57;99484.00;5041847;28;20067;-72
2021/05/04 07:26:16;;;;;;;8.90;2.47;;;;;;;9.49;75.60;99480.06;5052315;28;20060;-72
2021/05/04 07:28:44;;;;;;;6.40;2.28;;;;;;;9.41;75.29;99469.63;5055461;28;20062;-72
2021/05/04 07:31:11;;;;;;;6.80;1.92;;;;;;;9.43;76.40;99469.47;5065906;28;20569;-72
2021/05/04 07:33:38;;;;;;;5.80;2.38;;;;;;;9.47;76.88;99470.75;5052844;28;20052;-72
2021/05/04 07:36:04;;;;;;;7.72;2.80;;;;;;;9.46;77.27;99476.97;5056209;28;20049;-73
2021/05/04 07:38:31;;;;;;;5.15;2.67;;;;;;;9.49;77.27;99471.38;5050956;28;20159;-73
2021/05/04 07:40:57;;;;;;;8.93;2.80;;;;;;;9.43;77.01;99470.28;5062931;28;20106;-72
2021/05/04 07:43:23;;;;;;;7.45;2.90;;;;;;;9.48;77.09;99464.50;5064023;28;20052;-72
2021/05/04 07:45:49;;;;;;;10.18;3.42;;;;;;;9.47;77.60;99463.69;5035155;28;20048;-73
2021/05/04 07:48:17;;;;;;;5.75;3.33;;;;;;;9.48;78.70;99478.41;5054136;28;20052;-73
2021/05/04 07:50:44;;;;;;;10.55;3.55;;;;;;;9.35;78.17;99457.22;5049113;28;20082;-73
2021/05/04 07:53:10;;;;;;;9.38;2.97;;;;;;;9.22;79.75;99485.75;5061043;28;20076;-74
2021/05/04 07:55:36;;;;;;;4.93;2.55;;;;;;;8.86;81.08;99488.78;5037420;28;20047;-73
2021/05/04 07:58:02;;;;;;;7.60;2.25;;;;;;;8.67;80.58;99488.19;5059962;28;20055;-73
2021/05/04 08:00:29;;;;;;;7.13;1.95;;;;;;;8.54;81.32;99482.66;5057817;28;20087;-73
2021/05/04 08:02:58;;;;;;;8.68;2.65;;;;;;;8.57;81.60;99471.88;5047101;28;20052;-73
2021/05/04 08:05:24;;;;;;;8.63;2.90;;;;;;;8.59;82.74;99471.72;5042186;28;20055;-73
2021/05/04 08:07:50;;;;;;;13.88;3.10;;;;;;;8.74;82.57;99464.81;5052997;28;20409;-74
2021/05/04 08:10:16;;;;;;;8.40;3.53;;;;;;;8.91;81.96;99470.81;5043928;28;20044;-74
2021/05/04 08:12:42;;;;;;;4.97;2.63;;;;;;;8.99;80.84;99477.81;5049867;28;20080;-73
2021/05/04 08:15:15;;;;;;;9.15;2.88;;;;;;;9.15;80.49;99472.50;5054749;28;20452;-74
2021/05/04 08:17:45;;;;;;;11.68;3.50;;;;;;;9.26;80.26;99466.91;5052288;28;20057;-74
2021/05/04 08:20:13;;;;;;;13.77;3.40;;;;;;;9.50;79.77;99465.16;5034658;28;20238;-74
2021/05/04 08:22:38;;;;;;;14.68;3.63;;;;;;;9.66;78.79;99451.97;5060972;28;20154;-74
2021/05/04 08:25:05;;;;;;;9.57;3.08;;;;;;;9.75;78.03;99457.16;5052399;28;20415;-74
2021/05/04 08:27:31;;;;;;;13.13;3.58;;;;;;;9.93;78.57;99454.25;5061280;28;20114;-73
2021/05/04 08:29:57;;;;;;;10.75;3.03;;;;;;;9.96;77.45;99436.38;5046996;28;20052;-73
2021/05/04 08:32:23;;;;;;;16.35;4.05;;;;;;;10.00;76.79;99440.25;5048932;28;20433;-73
2021/05/04 08:34:49;;;;;;;9.38;3.08;;;;;;;10.17;75.49;99440.91;5060064;28;20052;-73
2021/05/04 08:37:15;;;;;;;16.67;3.88;;;;;;;10.39;76.51;99448.94;5053979;28;20498;-73
2021/05/04 08:39:42;;;;;;;9.88;2.97;;;;;;;10.41;74.19;99441.75;5058588;28;20155;-73
2021/05/04 08:42:08;;;;;;;12.75;3.92;;;;;;;10.27;72.08;99443.28;5053995;28;20049;-73
2021/05/04 08:44:37;;;;;;;11.38;2.90;;;;;;;10.34;72.67;99439.00;5051584;28;20072;-73
2021/05/04 08:47:04;;;;;;;13.10;3.50;;;;;;;10.34;72.71;99435.59;5058251;28;20437;-73
2021/05/04 08:49:32;;;;;;;10.80;3.47;;;;;;;10.32;72.72;99446.22;5061418;28;20106;-73
2021/05/04 08:51:59;;;;;;;15.68;3.25;;;;;;;10.29;71.80;99429.03;5059928;28;20444;-73
2021/05/04 08:54:25;;;;;;;12.15;3.25;;;;;;;10.24;71.59;99426.13;5051585;28;20134;-72
2021/05/04 08:56:51;;;;;;;13.07;3.33;;;;;;;10.29;71.75;99430.84;5056877;28;20040;-74
2021/05/04 08:59:17;;;;;;;10.30;3.70;;;;;;;10.34;72.09;99423.28;5050592;28;20518;-73
2021/05/04 09:01:43;;;;;;;15.02;4.13;;;;;;;10.21;71.42;99426.50;5070735;28;20052;-73
2021/05/04 09:04:32;;;;;;;10.65;3.22;;;;;;;10.27;73.15;99443.28;5059532;28;20138;-72
2021/05/04 09:07:17;;;;;;;8.32;2.90;;;;;;;9.80;75.45;99436.47;5065996;28;20227;-72
2021/05/04 09:10:04;;;;;;;7.20;2.33;;;;;;;9.79;77.98;99446.16;5061709;28;20052;-73
2021/05/04 09:12:43;;;;;;;7.25;2.70;;;;;;;9.87;78.81;99442.66;5053336;28;20060;-73
2021/05/04 09:15:43;;;;;;;8.50;3.63;;;;;;;10.19;78.13;99425.88;5063272;28;20072;-72
2021/05/04 09:18:27;;;;;;;10.50;3.20;;;;;;;10.47;76.46;99435.78;5061218;28;20048;-73
2021/05/04 09:21:05;;;;;;;9.93;2.75;;;;;;;10.48;75.86;99411.19;5046308;28;20134;-72
2021/05/04 09:23:31;;;;;;;13.25;3.30;;;;;;;10.55;74.31;99404.22;5052978;28;20092;-72
2021/05/04 09:25:58;;;;;;;7.35;2.60;;;;;;;10.56;73.76;99420.78;5055433;28;20083;-72
2021/05/04 09:28:24;;;;;;;13.35;2.88;;;;;;;10.71;73.60;99412.91;5053012;28;20125;-72
2021/05/04 09:30:53;;;;;;;14.10;2.85;;;;;;;10.82;70.83;99430.78;5066100;28;20123;-72
2021/05/04 09:33:19;;;;;;;9.23;2.30;;;;;;;10.86;71.41;99432.09;5039386;28;20199;-72
2021/05/04 09:35:45;;;;;;;8.25;2.30;;;;;;;11.10;70.52;99423.09;5063978;28;20080;-72
2021/05/04 09:38:13;;;;;;;9.05;2.38;;;;;;;11.21;69.41;99412.13;5058472;28;20176;-73
2021/05/04 09:40:41;;;;;;;8.38;2.10;;;;;;;11.40;69.78;99431.69;5032601;28;20095;-72
2021/05/04 09:43:13;;;;;;;7.88;2.20;;;;;;;11.42;70.49;99411.31;5053883;28;20071;-72
2021/05/04 09:45:43;;;;;;;7.80;2.33;;;;;;;11.08;69.48;99409.34;5057101;28;20137;-73
2021/05/04 09:48:20;;;;;;;11.25;2.72;;;;;;;10.86;71.01;99401.41;5056872;28;20053;-72
2021/05/04 09:50:46;;;;;;;13.88;2.97;;;;;;;10.83;71.94;99411.44;5056700;28;20434;-73
2021/05/04 09:53:14;;;;;;;11.20;2.90;;;;;;;10.76;71.91;99429.75;5057990;28;20510;-72
2021/05/04 09:55:59;;;;;;;13.57;4.07;;;;;;;10.61;72.38;99411.38;5032230;28;20056;-72
2021/05/04 09:58:37;;;;;;;10.98;3.00;;;;;;;10.10;75.62;99459.16;5065247;28;20153;-74
2021/05/04 10:01:05;;;;;;;12.63;3.07;;;;;;;9.57;78.82;99463.47;5047289;28;20080;-73
2021/05/04 10:03:32;;;;;;;8.48;2.53;;;;;;;9.62;77.91;99465.56;5033142;28;20088;-74
2021/05/04 10:06:00;;;;;;;7.75;2.28;;;;;;;9.66;76.75;99464.22;5062542;28;20098;-73
2021/05/04 10:08:28;;;;;;;8.75;2.65;;;;;;;9.71;77.13;99469.78;5048715;28;20495;-73
2021/05/04 10:10:58;;;;;;;13.45;3.42;;;;;;;9.54;75.65;99466.44;5065233;28;20071;-72
2021/05/04 10:13:28;;;;;;;10.82;3.15;;;;;;;9.73;76.60;99461.75;5059013;28;20076;-72
2021/05/04 10:15:56;;;;;;;7.40;2.20;;;;;;;9.94;75.84;99464.56;5043611;28;20114;-72
2021/05/04 10:18:23;;;;;;;12.75;2.95;;;;;;;10.10;73.47;99469.66;5053249;28;20456;-73
2021/05/04 10:20:52;;;;;;;11.10;2.10;;;;;;;10.45;72.96;99492.81;5060958;28;20048;-73
2021/05/04 10:23:18;;;;;;;7.65;2.22;;;;;;;10.43;71.57;99472.03;5062299;28;20052;-72
2021/05/04 10:25:49;;;;;;;6.80;1.75;;;;;;;10.45;71.38;99492.81;5056394;28;20059;-73
2021/05/04 10:28:16;;;;;;;9.63;2.28;;;;;;;10.37;70.98;99506.81;5066555;28;20056;-73
2021/05/04 10:30:42;;;;;;;9.38;1.73;;;;;;;10.09;68.03;99517.81;5054347;28;20063;-72
2021/05/04 10:33:10;;;;;;;10.63;2.38;;;;;;;10.24;67.85;99510.00;5057597;28;20061;-72
2021/05/04 10:35:38;;;;;;;9.32;1.63;;;;;;;10.36;67.40;99517.47;5056447;28;20076;-73
2021/05/04 10:38:07;;;;;;;9.10;1.83;;;;;;;10.44;67.46;99541.00;5061532;28;20430;-73
2021/05/04 10:40:37;;;;;;;6.97;1.50;;;;;;;10.33;65.79;99529.13;5063794;28;20642;-73
2021/05/04 10:43:22;;;;;;;4.72;1.25;;;;;;;10.29;65.67;99549.59;5054438;28;20106;-73
2021/05/04 10:45:54;;;;;;;8.27;1.33;;;;;;;10.35;64.18;99532.38;5058772;28;20048;-73
2021/05/04 10:48:40;;;;;;;8.15;1.38;;;;;;;10.69;63.93;99538.97;5056544;28;20052;-74
2021/05/04 10:51:15;;;;;;;6.07;1.23;;;;;;;10.69;63.37;99534.53;5062523;28;20333;-73
2021/05/04 10:53:53;;;;;;;7.20;1.70;;;;;;;10.77;60.65;99564.31;5034445;28;20469;-72
2021/05/04 10:56:42;;;;;;;5.10;1.13;;;;;;;10.64;60.58;99546.53;5063303;28;20060;-73
2021/05/04 10:59:38;;;;;;;6.18;1.10;;;;;;;10.50;59.59;99563.88;5053817;28;20088;-74
2021/05/04 11:02:07;;;;;;;5.95;1.25;;;;;;;10.05;60.21;99616.06;5046753;28;20442;-73
2021/05/04 11:04:40;;;;;;;11.75;1.60;;;;;;;8.61;77.13;99642.28;5051023;28;20064;-74
2021/05/04 11:07:07;;;;;;;7.78;1.40;;;;;;;8.34;78.90;99617.22;5047716;28;20040;-75
2021/05/04 11:09:39;;;;;;;7.72;1.20;;;;;;;8.51;76.47;99606.66;5048485;28;20052;-74
2021/05/04 11:12:09;;;;;;;10.32;1.50;;;;;;;8.47;74.59;99638.50;5039521;28;20045;-73
2021/05/04 11:14:39;;;;;;;2.53;0.95;;;;;;;8.70;75.40;99599.47;5059074;28;20048;-74
2021/05/04 11:17:11;;;;;;;6.03;1.15;;;;;;;8.81;73.92;99591.28;5053836;28;20052;-74
2021/05/04 11:19:42;;;;;;;4.15;1.15;;;;;;;8.97;73.21;99621.84;5060711;28;20059;-74
2021/05/04 11:22:13;;;;;;;4.55;1.00;;;;;;;8.87;69.15;99632.47;5051917;28;20054;-74
2021/05/04 11:24:41;;;;;;;2.28;1.00;;;;;;;8.81;70.53;99658.47;5058705;28;20526;-74
2021/05/04 11:27:16;;;;;;;5.97;1.20;;;;;;;8.95;71.33;99644.72;5037885;28;20421;-73
2021/05/04 11:29:46;;;;;;;8.43;1.58;;;;;;;9.28;70.89;99628.97;5063914;28;20482;-73
2021/05/04 11:32:37;;;;;;;5.30;1.35;;;;;;;9.44;69.55;99642.00;5047663;28;20056;-72
2021/05/04 11:35:05;;;;;;;4.03;1.40;;;;;;;9.60;70.18;99633.28;5051646;28;20079;-72
2021/05/04 11:37:45;;;;;;;8.32;2.22;;;;;;;9.56;67.62;99645.09;5057301;28;20455;-73